sensor_id;sensor_type;location;lat;lon;timestamp;pressure;altitude;pressure_sealevel;temperature;humidity
71361;BME280;59166;48.908;1.870;2023-06-04T00:04:04;100439.66;;;15.82;58.45
71361;BME280;59166;48.908;1.870;2023-06-04T00:09:04;100433.41;;;15.82;57.13
71361;BME280;59166;48.908;1.870;2023-06-04T00:14:07;100429.03;;;15.81;56.52
71361;BME280;59166;48.908;1.870;2023-06-04T00:19:08;100426.31;;;15.81;56.35
71361;BME280;59166;48.908;1.870;2023-06-04T00:24:09;100432.81;;;15.85;55.84
71361;BME280;59166;48.908;1.870;2023-06-04T00:29:11;100429.00;;;15.86;56.10
71361;BME280;59166;48.908;1.870;2023-06-04T00:34:12;100426.78;;;15.88;55.25
71361;BME280;59166;48.908;1.870;2023-06-04T00:39:13;100426.13;;;15.77;56.01
71361;BME280;59166;48.908;1.870;2023-06-04T00:44:15;100427.66;;;15.83;55.29
71361;BME280;59166;48.908;1.870;2023-06-04T00:49:16;100425.56;;;15.75;55.96
71361;BME280;59166;48.908;1.870;2023-06-04T00:54:19;100426.41;;;15.76;55.29
71361;BME280;59166;48.908;1.870;2023-06-04T00:59:22;100425.44;;;15.67;56.07
71361;BME280;59166;48.908;1.870;2023-06-04T01:04:29;100433.19;;;15.55;57.00
71361;BME280;59166;48.908;1.870;2023-06-04T01:09:32;100425.59;;;15.52;56.35
71361;BME280;59166;48.908;1.870;2023-06-04T01:14:36;100425.09;;;15.50;56.21
71361;BME280;59166;48.908;1.870;2023-06-04T01:20:01;100421.91;;;15.42;56.64
71361;BME280;59166;48.908;1.870;2023-06-04T01:25:04;100425.22;;;15.34;56.63
71361;BME280;59166;48.908;1.870;2023-06-04T01:30:08;100432.94;;;15.27;56.91
71361;BME280;59166;48.908;1.870;2023-06-04T01:35:11;100427.81;;;15.21;57.39
71361;BME280;59166;48.908;1.870;2023-06-04T01:40:12;100428.72;;;15.16;58.04
71361;BME280;59166;48.908;1.870;2023-06-04T01:45:15;100431.94;;;15.18;57.07
71361;BME280;59166;48.908;1.870;2023-06-04T01:50:16;100440.69;;;15.15;56.48
71361;BME280;59166;48.908;1.870;2023-06-04T01:55:17;100438.00;;;15.10;57.29
71361;BME280;59166;48.908;1.870;2023-06-04T02:00:19;100433.78;;;14.99;57.66
71361;BME280;59166;48.908;1.870;2023-06-04T02:05:20;100433.28;;;14.87;58.95
71361;BME280;59166;48.908;1.870;2023-06-04T02:10:21;100437.97;;;14.81;57.79
71361;BME280;59166;48.908;1.870;2023-06-04T02:15:25;100440.00;;;14.66;61.29
71361;BME280;59166;48.908;1.870;2023-06-04T02:20:26;100446.03;;;14.58;59.76
71361;BME280;59166;48.908;1.870;2023-06-04T02:25:27;100446.94;;;14.48;59.73
71361;BME280;59166;48.908;1.870;2023-06-04T02:30:29;100449.16;;;14.36;61.44
71361;BME280;59166;48.908;1.870;2023-06-04T02:35:30;100440.81;;;14.27;62.08
71361;BME280;59166;48.908;1.870;2023-06-04T02:40:31;100441.69;;;14.18;62.35
71361;BME280;59166;48.908;1.870;2023-06-04T02:45:34;100442.56;;;14.08;62.85
71361;BME280;59166;48.908;1.870;2023-06-04T02:50:35;100438.53;;;13.96;62.37
71361;BME280;59166;48.908;1.870;2023-06-04T02:55:36;100434.22;;;13.89;64.08
71361;BME280;59166;48.908;1.870;2023-06-04T03:00:38;100431.44;;;14.00;59.78
71361;BME280;59166;48.908;1.870;2023-06-04T03:05:39;100436.25;;;14.13;61.81
71361;BME280;59166;48.908;1.870;2023-06-04T03:10:40;100438.16;;;14.12;60.33
71361;BME280;59166;48.908;1.870;2023-06-04T03:15:42;100447.06;;;14.28;60.05
71361;BME280;59166;48.908;1.870;2023-06-04T03:20:43;100434.88;;;14.20;60.51
71361;BME280;59166;48.908;1.870;2023-06-04T03:25:44;100432.53;;;14.04;61.93
71361;BME280;59166;48.908;1.870;2023-06-04T03:30:47;100428.06;;;13.74;63.34
71361;BME280;59166;48.908;1.870;2023-06-04T03:35:47;100427.50;;;13.72;63.12
71361;BME280;59166;48.908;1.870;2023-06-04T03:40:51;100426.94;;;13.65;62.51
71361;BME280;59166;48.908;1.870;2023-06-04T03:45:53;100424.78;;;13.62;62.83
71361;BME280;59166;48.908;1.870;2023-06-04T03:50:54;100431.03;;;13.67;62.80
71361;BME280;59166;48.908;1.870;2023-06-04T03:55:55;100428.31;;;13.72;61.40
71361;BME280;59166;48.908;1.870;2023-06-04T04:00:58;100426.41;;;13.73;61.63
71361;BME280;59166;48.908;1.870;2023-06-04T04:05:59;100434.03;;;13.71;61.46
71361;BME280;59166;48.908;1.870;2023-06-04T04:11:00;100441.38;;;13.70;61.18
71361;BME280;59166;48.908;1.870;2023-06-04T04:16:02;100445.97;;;13.70;61.50
71361;BME280;59166;48.908;1.870;2023-06-04T04:21:04;100450.84;;;13.73;61.41
71361;BME280;59166;48.908;1.870;2023-06-04T04:26:04;100451.94;;;13.72;60.90
71361;BME280;59166;48.908;1.870;2023-06-04T04:31:07;100443.25;;;13.70;61.85
71361;BME280;59166;48.908;1.870;2023-06-04T04:36:08;100438.09;;;13.63;62.20
71361;BME280;59166;48.908;1.870;2023-06-04T04:41:09;100438.66;;;13.70;60.74
71361;BME280;59166;48.908;1.870;2023-06-04T04:46:11;100445.69;;;13.71;62.07
71361;BME280;59166;48.908;1.870;2023-06-04T04:51:14;100452.19;;;13.75;61.08
71361;BME280;59166;48.908;1.870;2023-06-04T04:56:15;100455.75;;;13.71;61.95
71361;BME280;59166;48.908;1.870;2023-06-04T05:01:17;100455.19;;;13.74;61.61
71361;BME280;59166;48.908;1.870;2023-06-04T05:06:19;100451.66;;;13.73;62.11
71361;BME280;59166;48.908;1.870;2023-06-04T05:11:20;100464.38;;;13.88;60.41
71361;BME280;59166;48.908;1.870;2023-06-04T05:16:22;100463.25;;;13.94;60.55
71361;BME280;59166;48.908;1.870;2023-06-04T05:21:23;100461.06;;;13.96;60.95
71361;BME280;59166;48.908;1.870;2023-06-04T05:26:24;100464.59;;;14.02;60.49
71361;BME280;59166;48.908;1.870;2023-06-04T05:31:27;100461.53;;;14.13;59.62
71361;BME280;59166;48.908;1.870;2023-06-04T05:36:28;100468.31;;;14.16;60.37
71361;BME280;59166;48.908;1.870;2023-06-04T05:41:29;100475.03;;;14.28;60.18
71361;BME280;59166;48.908;1.870;2023-06-04T05:46:32;100475.81;;;14.34;59.24
71361;BME280;59166;48.908;1.870;2023-06-04T05:51:33;100479.88;;;14.41;59.29
71361;BME280;59166;48.908;1.870;2023-06-04T05:56:33;100477.66;;;14.49;58.99
71361;BME280;59166;48.908;1.870;2023-06-04T06:01:38;100481.91;;;14.60;59.24
71361;BME280;59166;48.908;1.870;2023-06-04T06:06:39;100490.28;;;14.68;58.60
71361;BME280;59166;48.908;1.870;2023-06-04T06:11:40;100491.03;;;14.79;58.25
71361;BME280;59166;48.908;1.870;2023-06-04T06:16:42;100504.25;;;14.90;57.85
71361;BME280;59166;48.908;1.870;2023-06-04T06:21:43;100505.25;;;15.05;58.05
71361;BME280;59166;48.908;1.870;2023-06-04T06:26:44;100517.38;;;15.22;57.71
71361;BME280;59166;48.908;1.870;2023-06-04T06:31:46;100515.31;;;15.38;57.52
71361;BME280;59166;48.908;1.870;2023-06-04T06:36:47;100527.97;;;15.53;57.20
71361;BME280;59166;48.908;1.870;2023-06-04T06:41:48;100523.97;;;15.69;57.38
71361;BME280;59166;48.908;1.870;2023-06-04T06:46:50;100510.66;;;15.91;56.21
71361;BME280;59166;48.908;1.870;2023-06-04T06:51:51;100518.63;;;16.11;56.88
71361;BME280;59166;48.908;1.870;2023-06-04T06:56:52;100522.25;;;16.25;56.25
71361;BME280;59166;48.908;1.870;2023-06-04T07:01:55;100532.97;;;16.40;55.13
71361;BME280;59166;48.908;1.870;2023-06-04T07:06:56;100533.50;;;16.61;53.55
71361;BME280;59166;48.908;1.870;2023-06-04T07:11:56;100540.03;;;16.79;54.21
71361;BME280;59166;48.908;1.870;2023-06-04T07:17:00;100536.13;;;17.04;55.14
71361;BME280;59166;48.908;1.870;2023-06-04T07:22:01;100533.41;;;17.22;53.01
71361;BME280;59166;48.908;1.870;2023-06-04T07:27:02;100537.06;;;17.31;52.05
71361;BME280;59166;48.908;1.870;2023-06-04T07:32:12;100539.72;;;17.50;53.90
71361;BME280;59166;48.908;1.870;2023-06-04T07:37:13;100541.00;;;17.71;52.37
71361;BME280;59166;48.908;1.870;2023-06-04T07:42:14;100549.19;;;17.85;51.72
71361;BME280;59166;48.908;1.870;2023-06-04T07:47:16;100543.47;;;18.00;50.31
71361;BME280;59166;48.908;1.870;2023-06-04T07:52:17;100544.66;;;18.35;51.29
71361;BME280;59166;48.908;1.870;2023-06-04T07:57:18;100536.53;;;18.57;50.24
71361;BME280;59166;48.908;1.870;2023-06-04T08:02:20;100534.25;;;18.73;49.64
71361;BME280;59166;48.908;1.870;2023-06-04T08:07:21;100529.38;;;18.83;48.43
71361;BME280;59166;48.908;1.870;2023-06-04T08:12:22;100533.03;;;19.15;49.03
71361;BME280;59166;48.908;1.870;2023-06-04T08:17:24;100525.91;;;19.36;47.62
71361;BME280;59166;48.908;1.870;2023-06-04T08:22:26;100524.31;;;19.66;48.70
71361;BME280;59166;48.908;1.870;2023-06-04T08:27:27;100532.09;;;20.12;47.93
71361;BME280;59166;48.908;1.870;2023-06-04T08:32:30;100529.41;;;20.29;45.88
71361;BME280;59166;48.908;1.870;2023-06-04T08:37:30;100538.47;;;20.55;46.70
71361;BME280;59166;48.908;1.870;2023-06-04T08:42:35;100540.81;;;21.13;45.56
71361;BME280;59166;48.908;1.870;2023-06-04T08:47:40;100540.31;;;21.20;43.78
71361;BME280;59166;48.908;1.870;2023-06-04T08:52:43;100535.28;;;21.30;45.30
71361;BME280;59166;48.908;1.870;2023-06-04T08:57:45;100537.72;;;21.87;44.22
71361;BME280;59166;48.908;1.870;2023-06-04T09:02:53;100534.50;;;22.23;42.27
71361;BME280;59166;48.908;1.870;2023-06-04T09:07:55;100534.56;;;22.64;41.65
71361;BME280;59166;48.908;1.870;2023-06-04T09:13:02;100538.09;;;22.73;40.19
71361;BME280;59166;48.908;1.870;2023-06-04T09:18:07;100539.66;;;23.36;40.18
71361;BME280;59166;48.908;1.870;2023-06-04T09:23:17;100544.88;;;23.50;38.86
71361;BME280;59166;48.908;1.870;2023-06-04T09:28:18;100543.22;;;23.94;38.76
71361;BME280;59166;48.908;1.870;2023-06-04T09:33:20;100551.78;;;24.37;36.78
71361;BME280;59166;48.908;1.870;2023-06-04T09:38:21;100537.97;;;24.25;37.00
71361;BME280;59166;48.908;1.870;2023-06-04T09:43:22;100535.59;;;23.55;36.13
71361;BME280;59166;48.908;1.870;2023-06-04T09:48:25;100551.69;;;23.65;34.90
71361;BME280;59166;48.908;1.870;2023-06-04T09:53:26;100552.44;;;23.98;37.04
71361;BME280;59166;48.908;1.870;2023-06-04T09:58:28;100553.13;;;23.95;35.46
71361;BME280;59166;48.908;1.870;2023-06-04T10:03:32;100554.97;;;23.91;34.14
71361;BME280;59166;48.908;1.870;2023-06-04T10:08:34;100558.50;;;23.79;34.98
71361;BME280;59166;48.908;1.870;2023-06-04T10:13:47;100556.59;;;24.04;33.62
71361;BME280;59166;48.908;1.870;2023-06-04T10:18:52;100556.84;;;24.23;34.03
71361;BME280;59166;48.908;1.870;2023-06-04T10:23:54;100553.38;;;24.14;32.38
71361;BME280;59166;48.908;1.870;2023-06-04T10:28:57;100551.66;;;24.22;32.72
71361;BME280;59166;48.908;1.870;2023-06-04T10:34:01;100552.44;;;24.59;33.67
71361;BME280;59166;48.908;1.870;2023-06-04T10:39:02;100550.03;;;24.45;31.37
71361;BME280;59166;48.908;1.870;2023-06-04T10:44:03;100556.00;;;24.47;34.69
71361;BME280;59166;48.908;1.870;2023-06-04T10:49:09;100562.28;;;24.96;30.88
71361;BME280;59166;48.908;1.870;2023-06-04T10:54:10;100569.94;;;24.63;30.99
71361;BME280;59166;48.908;1.870;2023-06-04T10:59:15;100555.16;;;25.23;33.37
71361;BME280;59166;48.908;1.870;2023-06-04T11:04:22;100555.66;;;25.13;32.31
71361;BME280;59166;48.908;1.870;2023-06-04T11:09:26;100554.78;;;25.24;30.36
71361;BME280;59166;48.908;1.870;2023-06-04T11:14:27;100551.94;;;25.21;30.99
71361;BME280;59166;48.908;1.870;2023-06-04T11:19:37;100548.56;;;25.55;32.09
71361;BME280;59166;48.908;1.870;2023-06-04T11:24:38;100557.91;;;25.94;32.17
71361;BME280;59166;48.908;1.870;2023-06-04T11:29:42;100563.06;;;26.42;29.18
71361;BME280;59166;48.908;1.870;2023-06-04T11:34:45;100555.22;;;26.13;28.84
71361;BME280;59166;48.908;1.870;2023-06-04T11:39:46;100549.09;;;26.55;30.10
71361;BME280;59166;48.908;1.870;2023-06-04T11:44:58;100549.66;;;26.79;28.42
71361;BME280;59166;48.908;1.870;2023-06-04T11:50:04;100544.28;;;27.25;28.17
71361;BME280;59166;48.908;1.870;2023-06-04T11:55:07;100555.41;;;27.06;26.65
71361;BME280;59166;48.908;1.870;2023-06-04T12:00:10;100559.97;;;26.79;28.14
71361;BME280;59166;48.908;1.870;2023-06-04T12:05:14;100538.38;;;27.07;28.58
71361;BME280;59166;48.908;1.870;2023-06-04T12:10:15;100540.78;;;27.09;27.56
71361;BME280;59166;48.908;1.870;2023-06-04T12:15:19;100549.47;;;27.07;28.06
71361;BME280;59166;48.908;1.870;2023-06-04T12:20:32;100543.63;;;27.12;28.08
71361;BME280;59166;48.908;1.870;2023-06-04T12:25:34;100526.22;;;27.34;27.81
71361;BME280;59166;48.908;1.870;2023-06-04T12:30:35;100539.19;;;27.46;27.49
71361;BME280;59166;48.908;1.870;2023-06-04T12:35:37;100523.41;;;27.73;27.19
71361;BME280;59166;48.908;1.870;2023-06-04T12:40:39;100524.91;;;27.67;27.26
71361;BME280;59166;48.908;1.870;2023-06-04T12:45:41;100512.94;;;27.63;28.55
71361;BME280;59166;48.908;1.870;2023-06-04T12:50:43;100518.41;;;27.82;27.20
71361;BME280;59166;48.908;1.870;2023-06-04T12:55:44;100524.19;;;27.96;27.39
71361;BME280;59166;48.908;1.870;2023-06-04T13:00:45;100530.25;;;27.79;27.17
71361;BME280;59166;48.908;1.870;2023-06-04T13:05:47;100520.56;;;27.46;27.13
71361;BME280;59166;48.908;1.870;2023-06-04T13:10:49;100511.69;;;27.83;25.82
71361;BME280;59166;48.908;1.870;2023-06-04T13:15:50;100510.00;;;27.78;25.36
71361;BME280;59166;48.908;1.870;2023-06-04T13:20:52;100518.16;;;27.68;26.12
71361;BME280;59166;48.908;1.870;2023-06-04T13:25:53;100520.69;;;27.99;27.20
71361;BME280;59166;48.908;1.870;2023-06-04T13:30:54;100507.19;;;27.97;25.42
71361;BME280;59166;48.908;1.870;2023-06-04T13:35:56;100501.50;;;28.13;25.00
71361;BME280;59166;48.908;1.870;2023-06-04T13:40:57;100511.00;;;28.12;25.28
71361;BME280;59166;48.908;1.870;2023-06-04T13:45:59;100511.56;;;28.25;25.59
71361;BME280;59166;48.908;1.870;2023-06-04T13:51:01;100501.78;;;28.31;26.96
71361;BME280;59166;48.908;1.870;2023-06-04T13:56:02;100502.09;;;28.56;25.43
71361;BME280;59166;48.908;1.870;2023-06-04T14:01:03;100508.69;;;28.70;26.01
71361;BME280;59166;48.908;1.870;2023-06-04T14:06:05;100491.16;;;28.66;24.76
71361;BME280;59166;48.908;1.870;2023-06-04T14:11:06;100486.09;;;28.72;26.88
71361;BME280;59166;48.908;1.870;2023-06-04T14:16:07;100497.88;;;27.86;25.69
71361;BME280;59166;48.908;1.870;2023-06-04T14:21:09;100484.09;;;28.46;24.58
71361;BME280;59166;48.908;1.870;2023-06-04T14:26:10;100490.09;;;28.22;24.71
71361;BME280;59166;48.908;1.870;2023-06-04T14:31:11;100474.13;;;28.15;26.29
71361;BME280;59166;48.908;1.870;2023-06-04T14:36:13;100473.88;;;28.24;25.25
71361;BME280;59166;48.908;1.870;2023-06-04T14:41:14;100463.75;;;28.38;26.03
71361;BME280;59166;48.908;1.870;2023-06-04T14:46:16;100460.13;;;28.34;23.21
71361;BME280;59166;48.908;1.870;2023-06-04T14:51:20;100453.31;;;28.88;23.49
71361;BME280;59166;48.908;1.870;2023-06-04T14:56:21;100450.09;;;28.86;24.21
71361;BME280;59166;48.908;1.870;2023-06-04T15:01:22;100454.75;;;28.75;23.53
71361;BME280;59166;48.908;1.870;2023-06-04T15:06:24;100451.91;;;28.71;22.82
71361;BME280;59166;48.908;1.870;2023-06-04T15:11:25;100451.56;;;28.76;23.62
71361;BME280;59166;48.908;1.870;2023-06-04T15:16:26;100456.31;;;28.46;23.84
71361;BME280;59166;48.908;1.870;2023-06-04T15:21:28;100453.44;;;28.69;23.67
71361;BME280;59166;48.908;1.870;2023-06-04T15:26:29;100461.22;;;28.56;23.64
71361;BME280;59166;48.908;1.870;2023-06-04T15:31:30;100461.88;;;28.46;24.31
71361;BME280;59166;48.908;1.870;2023-06-04T15:36:32;100459.75;;;28.66;23.70
71361;BME280;59166;48.908;1.870;2023-06-04T15:41:33;100462.53;;;28.66;23.48
71361;BME280;59166;48.908;1.870;2023-06-04T15:46:34;100467.06;;;28.47;23.59
71361;BME280;59166;48.908;1.870;2023-06-04T15:51:37;100459.91;;;28.46;24.94
71361;BME280;59166;48.908;1.870;2023-06-04T15:56:38;100455.66;;;28.26;24.45
71361;BME280;59166;48.908;1.870;2023-06-04T16:01:39;100449.88;;;28.12;23.09
71361;BME280;59166;48.908;1.870;2023-06-04T16:06:41;100438.38;;;27.87;24.72
71361;BME280;59166;48.908;1.870;2023-06-04T16:11:43;100440.47;;;28.20;24.67
71361;BME280;59166;48.908;1.870;2023-06-04T16:16:45;100435.09;;;27.82;24.02
71361;BME280;59166;48.908;1.870;2023-06-04T16:21:47;100427.91;;;27.55;24.96
71361;BME280;59166;48.908;1.870;2023-06-04T16:26:48;100427.28;;;27.65;24.69
71361;BME280;59166;48.908;1.870;2023-06-04T16:31:49;100425.09;;;27.51;25.01
71361;BME280;59166;48.908;1.870;2023-06-04T16:36:51;100417.09;;;27.27;26.27
71361;BME280;59166;48.908;1.870;2023-06-04T16:41:52;100423.66;;;27.61;25.96
71361;BME280;59166;48.908;1.870;2023-06-04T16:46:53;100423.03;;;27.71;25.36
71361;BME280;59166;48.908;1.870;2023-06-04T16:51:55;100424.72;;;27.30;25.93
71361;BME280;59166;48.908;1.870;2023-06-04T16:56:56;100413.19;;;27.50;26.29
71361;BME280;59166;48.908;1.870;2023-06-04T17:01:58;100416.41;;;27.52;25.60
71361;BME280;59166;48.908;1.870;2023-06-04T17:07:00;100414.78;;;26.87;26.14
71361;BME280;59166;48.908;1.870;2023-06-04T17:12:02;100401.19;;;26.63;26.96
71361;BME280;59166;48.908;1.870;2023-06-04T17:17:03;100404.56;;;26.72;26.71
71361;BME280;59166;48.908;1.870;2023-06-04T17:22:05;100396.38;;;26.60;28.32
71361;BME280;59166;48.908;1.870;2023-06-04T17:27:06;100399.25;;;26.44;27.52
71361;BME280;59166;48.908;1.870;2023-06-04T17:32:07;100400.63;;;26.34;27.47
71361;BME280;59166;48.908;1.870;2023-06-04T17:37:10;100390.41;;;26.19;27.40
71361;BME280;59166;48.908;1.870;2023-06-04T17:42:10;100406.47;;;25.79;29.29
71361;BME280;59166;48.908;1.870;2023-06-04T17:47:11;100417.00;;;25.58;28.72
71361;BME280;59166;48.908;1.870;2023-06-04T17:52:13;100416.63;;;25.12;29.08
71361;BME280;59166;48.908;1.870;2023-06-04T17:57:14;100421.88;;;24.74;29.62
71361;BME280;59166;48.908;1.870;2023-06-04T18:02:15;100422.00;;;24.65;30.01
71361;BME280;59166;48.908;1.870;2023-06-04T18:07:18;100425.88;;;24.48;30.68
71361;BME280;59166;48.908;1.870;2023-06-04T18:12:18;100437.41;;;24.38;30.41
71361;BME280;59166;48.908;1.870;2023-06-04T18:17:19;100430.03;;;24.30;30.90
71361;BME280;59166;48.908;1.870;2023-06-04T18:22:22;100436.41;;;24.07;30.88
71361;BME280;59166;48.908;1.870;2023-06-04T18:27:23;100450.22;;;23.94;32.38
71361;BME280;59166;48.908;1.870;2023-06-04T18:32:23;100448.13;;;23.79;31.58
71361;BME280;59166;48.908;1.870;2023-06-04T18:37:26;100455.94;;;23.65;31.68
71361;BME280;59166;48.908;1.870;2023-06-04T18:42:27;100459.72;;;23.48;31.70
71361;BME280;59166;48.908;1.870;2023-06-04T18:47:28;100462.59;;;23.40;31.88
71361;BME280;59166;48.908;1.870;2023-06-04T18:52:30;100462.66;;;23.31;31.87
71361;BME280;59166;48.908;1.870;2023-06-04T18:57:31;100474.31;;;23.16;32.90
71361;BME280;59166;48.908;1.870;2023-06-04T19:02:32;100473.25;;;23.09;32.46
71361;BME280;59166;48.908;1.870;2023-06-04T19:07:34;100473.69;;;22.98;34.06
71361;BME280;59166;48.908;1.870;2023-06-04T19:12:35;100474.06;;;22.56;33.85
71361;BME280;59166;48.908;1.870;2023-06-04T19:17:36;100485.78;;;22.44;34.06
71361;BME280;59166;48.908;1.870;2023-06-04T19:22:39;100476.97;;;22.30;35.26
71361;BME280;59166;48.908;1.870;2023-06-04T19:27:40;100487.00;;;22.05;35.61
71361;BME280;59166;48.908;1.870;2023-06-04T19:32:41;100493.13;;;21.81;38.00
71361;BME280;59166;48.908;1.870;2023-06-04T19:37:44;100482.97;;;21.56;39.10
71361;BME280;59166;48.908;1.870;2023-06-04T19:42:45;100496.31;;;21.37;40.06
71361;BME280;59166;48.908;1.870;2023-06-04T19:47:46;100505.41;;;21.12;39.89
71361;BME280;59166;48.908;1.870;2023-06-04T19:52:49;100507.06;;;20.87;41.57
71361;BME280;59166;48.908;1.870;2023-06-04T19:57:50;100518.66;;;20.67;41.98
71361;BME280;59166;48.908;1.870;2023-06-04T20:02:51;100522.03;;;20.46;42.61
71361;BME280;59166;48.908;1.870;2023-06-04T20:07:53;100530.22;;;20.38;40.74
71361;BME280;59166;48.908;1.870;2023-06-04T20:12:54;100545.06;;;20.28;42.43
71361;BME280;59166;48.908;1.870;2023-06-04T20:17:55;100545.63;;;20.08;43.19
71361;BME280;59166;48.908;1.870;2023-06-04T20:22:57;100547.00;;;19.97;43.20
71361;BME280;59166;48.908;1.870;2023-06-04T20:27:58;100547.91;;;19.84;43.18
71361;BME280;59166;48.908;1.870;2023-06-04T20:32:59;100551.09;;;19.69;44.23
71361;BME280;59166;48.908;1.870;2023-06-04T20:38:02;100565.28;;;19.71;44.46
71361;BME280;59166;48.908;1.870;2023-06-04T20:43:03;100564.91;;;19.64;43.50
71361;BME280;59166;48.908;1.870;2023-06-04T20:48:04;100567.19;;;19.70;42.56
71361;BME280;59166;48.908;1.870;2023-06-04T20:53:06;100573.91;;;19.56;44.23
71361;BME280;59166;48.908;1.870;2023-06-04T20:58:07;100581.25;;;19.46;42.71
71361;BME280;59166;48.908;1.870;2023-06-04T21:03:08;100582.25;;;19.51;43.69
71361;BME280;59166;48.908;1.870;2023-06-04T21:08:10;100586.13;;;19.27;45.63
71361;BME280;59166;48.908;1.870;2023-06-04T21:13:11;100587.69;;;19.06;45.29
71361;BME280;59166;48.908;1.870;2023-06-04T21:18:13;100595.03;;;18.97;44.22
71361;BME280;59166;48.908;1.870;2023-06-04T21:23:16;100587.34;;;18.85;45.80
71361;BME280;59166;48.908;1.870;2023-06-04T21:28:17;100589.41;;;18.66;46.03
71361;BME280;59166;48.908;1.870;2023-06-04T21:33:18;100587.28;;;18.63;48.01
71361;BME280;59166;48.908;1.870;2023-06-04T21:38:20;100587.59;;;18.62;49.30
71361;BME280;59166;48.908;1.870;2023-06-04T21:43:21;100584.56;;;18.50;51.60
71361;BME280;59166;48.908;1.870;2023-06-04T21:48:22;100578.63;;;18.48;53.44
71361;BME280;59166;48.908;1.870;2023-06-04T21:53:24;100583.69;;;18.40;55.19
71361;BME280;59166;48.908;1.870;2023-06-04T21:58:25;100589.97;;;18.27;56.04
71361;BME280;59166;48.908;1.870;2023-06-04T22:03:26;100586.22;;;18.23;57.25
71361;BME280;59166;48.908;1.870;2023-06-04T22:08:28;100599.97;;;18.18;58.26
71361;BME280;59166;48.908;1.870;2023-06-04T22:13:29;100604.09;;;18.02;59.47
71361;BME280;59166;48.908;1.870;2023-06-04T22:18:30;100598.41;;;17.98;60.27
71361;BME280;59166;48.908;1.870;2023-06-04T22:23:33;100598.94;;;17.87;61.21
71361;BME280;59166;48.908;1.870;2023-06-04T22:28:34;100597.38;;;17.81;62.16
71361;BME280;59166;48.908;1.870;2023-06-04T22:33:35;100584.25;;;17.83;62.08
71361;BME280;59166;48.908;1.870;2023-06-04T22:38:43;100595.13;;;17.69;62.75
71361;BME280;59166;48.908;1.870;2023-06-04T22:43:44;100592.06;;;17.57;63.32
71361;BME280;59166;48.908;1.870;2023-06-04T22:48:45;100589.94;;;17.54;63.58
71361;BME280;59166;48.908;1.870;2023-06-04T22:53:47;100585.22;;;17.41;64.00
71361;BME280;59166;48.908;1.870;2023-06-04T22:58:48;100581.78;;;17.35;63.58
71361;BME280;59166;48.908;1.870;2023-06-04T23:03:49;100583.56;;;17.26;64.56
71361;BME280;59166;48.908;1.870;2023-06-04T23:08:51;100579.72;;;17.27;64.31
71361;BME280;59166;48.908;1.870;2023-06-04T23:13:52;100568.16;;;17.17;65.26
71361;BME280;59166;48.908;1.870;2023-06-04T23:18:53;100561.94;;;17.11;64.79
71361;BME280;59166;48.908;1.870;2023-06-04T23:23:55;100568.97;;;16.99;65.19
71361;BME280;59166;48.908;1.870;2023-06-04T23:28:56;100571.69;;;16.99;65.49
71361;BME280;59166;48.908;1.870;2023-06-04T23:33:57;100567.19;;;16.89;65.61
71361;BME280;59166;48.908;1.870;2023-06-04T23:39:00;100565.72;;;16.78;65.77
71361;BME280;59166;48.908;1.870;2023-06-04T23:44:01;100558.72;;;16.72;66.02
71361;BME280;59166;48.908;1.870;2023-06-04T23:49:02;100554.50;;;16.61;66.30
71361;BME280;59166;48.908;1.870;2023-06-04T23:54:04;100559.50;;;16.54;66.44
71361;BME280;59166;48.908;1.870;2023-06-04T23:59:05;100566.59;;;16.55;66.35
